CheckWX is a tool to help pilots better visualize weather data.  It is not intended as a substitute for an official pre-flight weather briefing.

13:36:11 UTC

OIAH METAR
Gachsaran Airport
Gachsaran, Iran
Current

36 mins ago

OIAH 251300Z 28021KT CAVOK 41/00 Q1004
Observed
Aug-25 @ 13:00 UTC
Wind
  • 280° at 21 KTS
Visibility
10,000+ meters
Flight Rules
VFR
Cloud Levels
  • Clear skies
Temperature
41°C / 106°F
Dewpoint
C / 32°F
Humidity
8%
Altimeter
29.65" Hg
Pressure
1003.92 hPa
Previous

2 hours ago

OIAH 251200Z 27012KT CAVOK 42/M03 Q1004
Observed
Aug-25 @ 12:00 UTC
Wind
  • 270° at 12 KTS
Visibility
10,000+ meters
Flight Rules
VFR
Cloud Levels
  • Clear skies
Temperature
42°C / 108°F
Dewpoint
-3°C / 27°F
Humidity
6%
Altimeter
29.65" Hg
Pressure
1003.92 hPa
Previous

3 hours ago

OIAH 251100Z 00000KT CAVOK 42/M03 Q1004
Observed
Aug-25 @ 11:00 UTC
Visibility
10,000+ meters
Flight Rules
VFR
Cloud Levels
  • Clear skies
Temperature
42°C / 108°F
Dewpoint
-3°C / 27°F
Humidity
6%
Altimeter
29.65" Hg
Pressure
1003.92 hPa